MOL Majesty — V7SV4 — position and weather

sailwx.info

Track history (hours):
 
Tides and Currents Weather Stations Pressure Air Temp Water Temp Dewpoint Dewpoint Depression Visibility Wind Speed Wind Dir Waves Ship Positions

MOL Majesty

Last reported at 2018-Jul-16 19:20 UTC. Time now 2018-Jul-18 10:11 UTC.
Position N 09°11' W 079°52'.

Length 302 m; draft 10.8 m.

Type: Ship (hazmat cat C). MMSI: 538003729.

Date/timePositionNaut miles runAvg speedWind from/ knotsBaromVisibWave heightAir tempDewpointWater temp
2018-Jul-16 19:20N 09°11' W 079°52'4 7.7
2018-Jul-16 18:50N 09°13' W 079°55'2 6.6
2018-Jul-16 18:29N 09°15' W 079°55'1 0.2
2018-Jul-16 13:51N 09°15' W 079°54'0 0.1
2018-Jul-16 13:27N 09°15' W 079°54'0 0.2
2018-Jul-16 12:27N 09°15' W 079°54'0 0.2
2018-Jul-16 12:00N 09°15' W 079°54'1 1.5
2018-Jul-16 11:30N 09°16' W 079°55'0 0.6
2018-Jul-16 10:56N 09°16' W 079°55'0 0.3
2018-Jul-16 10:31N 09°16' W 079°55'0 0.4
2018-Jul-16 10:01N 09°17' W 079°55'0 0.3
2018-Jul-16 09:30N 09°17' W 079°55'0 0.5
2018-Jul-16 08:54N 09°17' W 079°55'0 0.9
2018-Jul-16 08:30N 09°17' W 079°55'1 2.9
2018-Jul-16 08:00N 09°19' W 079°55'3 6.7
2018-Jul-16 07:30N 09°22' W 079°55'3 6.6
2018-Jul-16 07:00N 09°25' W 079°55'1 1.1
2018-Jul-16 06:04N 09°26' W 079°55'0 0.3
2018-Jul-16 05:58N 09°26' W 079°55'0 0.0
2018-Jul-16 05:13N 09°26' W 079°55'0 0.0
2018-Jul-16 04:22N 09°26' W 079°55'0 0.0
2018-Jul-16 03:40N 09°26' W 079°56'0 0.1
2018-Jul-16 03:28N 09°26' W 079°55'0 0.0
2018-Jul-16 02:43N 09°26' W 079°55'0 0.1
2018-Jul-16 02:28N 09°26' W 079°55'0 0.1
2018-Jul-16 01:37N 09°26' W 079°56'0 0.2
2018-Jul-16 01:25N 09°26' W 079°55'0 0.3
2018-Jul-16 00:58N 09°27' W 079°55'0 0.1
2018-Jul-15 23:58N 09°26' W 079°56'0 0.3
2018-Jul-15 23:28N 09°27' W 079°55'0 0.0
2018-Jul-15 22:58N 09°26' W 079°55'0 0.3
2018-Jul-15 22:28N 09°26' W 079°55'0 0.2
2018-Jul-15 21:58N 09°26' W 079°55'0 0.1
2018-Jul-15 21:01N 09°26' W 079°55'0 0.2
2018-Jul-15 20:55N 09°26' W 079°55'0 0.3
2018-Jul-15 20:28N 09°27' W 079°55'0 0.0
2018-Jul-15 19:58N 09°27' W 079°55'0 0.0
2018-Jul-15 19:28N 09°27' W 079°55'0 0.0
2018-Jul-15 18:58N 09°27' W 079°55'0 0.0
2018-Jul-15 18:28N 09°27' W 079°55'0 0.0
2018-Jul-15 17:58N 09°27' W 079°55'0 0.0
2018-Jul-15 17:28N 09°27' W 079°55'0 0.0
2018-Jul-15 16:58N 09°27' W 079°55'0 0.1
2018-Jul-15 16:28N 09°27' W 079°55'0 0.4
2018-Jul-15 15:58N 09°26' W 079°56'0 0.2
2018-Jul-15 15:28N 09°26' W 079°55'0 0.0
2018-Jul-15 14:25N 09°26' W 079°55'0 0.0
2018-Jul-15 13:25N 09°26' W 079°55'0 0.4
2018-Jul-15 13:00N 09°27' W 079°55'3 6.8
2018-Jul-15 12:30N 09°24' W 079°54'2 3.4
2018-Jul-15 12:00N 09°22' W 079°53'0 0.0
2018-Jul-15 11:30N 09°22' W 079°53'0 0.0
2018-Jul-15 11:00N 09°22' W 079°53'0 0.0
2018-Jul-15 10:30N 09°22' W 079°53'0 0.0
2018-Jul-15 10:00N 09°22' W 079°53'0 0.0
2018-Jul-15 09:30N 09°22' W 079°53'0 0.0
2018-Jul-15 09:00N 09°22' W 079°53'0 0.0
2018-Jul-15 08:30N 09°22' W 079°53'0 0.0
2018-Jul-15 08:00N 09°22' W 079°53'0 0.0
2018-Jul-15 07:30N 09°22' W 079°53'0 0.0
2018-Jul-15 07:00N 09°22' W 079°53'0 0.0
2018-Jul-15 06:30N 09°22' W 079°53'0 0.0
2018-Jul-15 06:00N 09°22' W 079°53'0 0.0
2018-Jul-15 05:30N 09°22' W 079°53'0 0.0
2018-Jul-15 05:00N 09°22' W 079°53'0 0.0
2018-Jul-15 04:30N 09°22' W 079°53'0 0.0
2018-Jul-15 04:00N 09°22' W 079°53'0 0.0
2018-Jul-15 03:30N 09°22' W 079°53'0 0.0
2018-Jul-15 03:00N 09°22' W 079°53'0 0.0
2018-Jul-15 02:30N 09°22' W 079°53'0 0.0
2018-Jul-15 02:00N 09°22' W 079°53'0 0.0
2018-Jul-15 01:30N 09°22' W 079°53'0 0.0
2018-Jul-15 01:00N 09°22' W 079°53'0 0.7
2018-Jul-15 00:30N 09°22' W 079°53'3 5.9
2018-Jul-15 00:00N 09°25' W 079°54'2 4.1
2018-Jul-14 23:28N 09°27' W 079°54'1 2.5
2018-Jul-14 23:01N 09°27' W 079°55'0 0.8
2018-Jul-14 22:30N 09°27' W 079°54'1 1.0
2018-Jul-14 22:00N 09°27' W 079°54'3 5.2
2018-Jul-14 21:31N 09°29' W 079°52'5 9.3
2018-Jul-14 21:00N 09°33' W 079°51'612.1
2018-Jul-14 20:30N 09°39' W 079°50'  
2018-Jul-10 09:10N 34°29' W 075°17'210.9
2018-Jul-10 09:00N 34°31' W 075°17'610.5
2018-Jul-10 08:26N 34°37' W 075°15'510.3
2018-Jul-10 07:58N 34°41' W 075°15'711.1
2018-Jul-10 07:18N 34°49' W 075°14'612.6
2018-Jul-10 06:48N 34°55' W 075°13'413.5
2018-Jul-10 06:30N 34°59' W 075°12'814.6
2018-Jul-10 05:57N 35°07' W 075°11'715.2
2018-Jul-10 05:30N 35°14' W 075°10'1014.9
2018-Jul-10 04:50N 35°24' W 075°11'515.4
2018-Jul-10 04:31N 35°29' W 075°11'5814.9
2018-Jul-10 00:35N 36°26' W 075°27'114.6
2018-Jul-10 00:30N 36°27' W 075°27'2914.1
2018-Jul-09 22:26N 36°50' W 075°49'613.5
2018-Jul-09 21:59N 36°54' W 075°55'2010.4
2018-Jul-09 20:03N 36°56' W 076°20'0 3.0
2018-Jul-09 20:00N 36°56' W 076°20'0 0.5
2018-Jul-09 19:28N 36°56' W 076°20'0 0.0
2018-Jul-09 18:43N 36°56' W 076°20'0 0.0
2018-Jul-09 18:28N 36°56' W 076°20'0 0.0
2018-Jul-08 15:08N 36°56' W 076°20'0 1.3
2018-Jul-08 14:59N 36°56' W 076°20'2 4.6
2018-Jul-08 14:30N 36°58' W 076°20'2210.8
2018-Jul-08 12:29N 36°54' W 075°53'2 4.3
2018-Jul-08 12:00N 36°53' W 075°52'4 8.4
2018-Jul-08 11:30N 36°50' W 075°47'1016.1
2018-Jul-08 10:53N 36°43' W 075°38'31616.1
2018-Jul-07 15:15N 32°44' W 079°49'311.2
2018-Jul-07 14:56N 32°46' W 079°52'4 8.5
2018-Jul-07 14:30N 32°49' W 079°55'4 7.9
2018-Jul-07 14:00N 32°52' W 079°58'2 1.9
2018-Jul-07 12:56N 32°54' W 079°58'0 0.0
2018-Jul-07 11:44N 32°54' W 079°58'0 0.0
2018-Jul-07 11:29N 32°54' W 079°58'0 0.0
2018-Jul-07 10:35N 32°54' W 079°58'0 0.0
2018-Jul-07 10:14N 32°54' W 079°58'0 0.0
2018-Jul-07 09:59N 32°54' W 079°58'0 0.0
2018-Jul-07 09:29N 32°54' W 079°58'0 0.0
2018-Jul-07 08:59N 32°54' W 079°58'0 0.0
2018-Jul-07 08:20N 32°54' W 079°58'0 0.0
2018-Jul-07 07:59N 32°54' W 079°58'0 0.0
2018-Jul-07 06:38N 32°54' W 079°58'0 0.0
2018-Jul-07 05:32N 32°54' W 079°58'0 0.0
2018-Jul-07 05:17N 32°54' W 079°58'0 0.0
2018-Jul-07 04:44N 32°54' W 079°58'0 0.0
2018-Jul-07 00:02N 32°54' W 079°58'0 0.0
2018-Jul-06 23:32N 32°54' W 079°58'0 0.0
2018-Jul-06 23:26N 32°54' W 079°58'0 0.0
2018-Jul-06 22:59N 32°54' W 079°58'0 0.0
2018-Jul-06 22:29N 32°54' W 079°58'0 0.0
2018-Jul-06 21:59N 32°54' W 079°58'0 0.0
2018-Jul-06 21:29N 32°54' W 079°58'0 0.0
2018-Jul-06 20:59N 32°54' W 079°58'0 0.0
2018-Jul-06 20:28N 32°54' W 079°58'0 0.9
2018-Jul-06 20:00N 32°54' W 079°57'2 4.7
2018-Jul-06 19:30N 32°52' W 079°58'  
Track history (hours):
 
Tides and Currents Weather Stations Pressure Air Temp Water Temp Dewpoint Dewpoint Depression Visibility Wind Speed Wind Dir Waves Ship Positions

MOL Majesty

Last reported at 2018-Jul-16 19:20 UTC. Time now 2018-Jul-18 10:11 UTC.
Position N 09°11' W 079°52'.

Length 302 m; draft 10.8 m.

Type: Ship (hazmat cat C). MMSI: 538003729.

Date/timePositionNaut miles runAvg speedWind from/ knotsBaromVisibWave heightAir tempDewpointWater temp
2018-Jul-16 19:20N 09°11' W 079°52'4 7.7
2018-Jul-16 18:50N 09°13' W 079°55'2 6.6
2018-Jul-16 18:29N 09°15' W 079°55'1 0.2
2018-Jul-16 13:51N 09°15' W 079°54'0 0.1
2018-Jul-16 13:27N 09°15' W 079°54'0 0.2
2018-Jul-16 12:27N 09°15' W 079°54'0 0.2
2018-Jul-16 12:00N 09°15' W 079°54'1 1.5
2018-Jul-16 11:30N 09°16' W 079°55'0 0.6
2018-Jul-16 10:56N 09°16' W 079°55'0 0.3
2018-Jul-16 10:31N 09°16' W 079°55'0 0.4
2018-Jul-16 10:01N 09°17' W 079°55'0 0.3
2018-Jul-16 09:30N 09°17' W 079°55'0 0.5
2018-Jul-16 08:54N 09°17' W 079°55'0 0.9
2018-Jul-16 08:30N 09°17' W 079°55'1 2.9
2018-Jul-16 08:00N 09°19' W 079°55'3 6.7
2018-Jul-16 07:30N 09°22' W 079°55'3 6.6
2018-Jul-16 07:00N 09°25' W 079°55'1 1.1
2018-Jul-16 06:04N 09°26' W 079°55'0 0.3
2018-Jul-16 05:58N 09°26' W 079°55'0 0.0
2018-Jul-16 05:13N 09°26' W 079°55'0 0.0
2018-Jul-16 04:22N 09°26' W 079°55'0 0.0
2018-Jul-16 03:40N 09°26' W 079°56'0 0.1
2018-Jul-16 03:28N 09°26' W 079°55'0 0.0
2018-Jul-16 02:43N 09°26' W 079°55'0 0.1
2018-Jul-16 02:28N 09°26' W 079°55'0 0.1
2018-Jul-16 01:37N 09°26' W 079°56'0 0.2
2018-Jul-16 01:25N 09°26' W 079°55'0 0.3
2018-Jul-16 00:58N 09°27' W 079°55'0 0.1
2018-Jul-15 23:58N 09°26' W 079°56'0 0.3
2018-Jul-15 23:28N 09°27' W 079°55'0 0.0
2018-Jul-15 22:58N 09°26' W 079°55'0 0.3
2018-Jul-15 22:28N 09°26' W 079°55'0 0.2
2018-Jul-15 21:58N 09°26' W 079°55'0 0.1
2018-Jul-15 21:01N 09°26' W 079°55'0 0.2
2018-Jul-15 20:55N 09°26' W 079°55'0 0.3
2018-Jul-15 20:28N 09°27' W 079°55'0 0.0
2018-Jul-15 19:58N 09°27' W 079°55'0 0.0
2018-Jul-15 19:28N 09°27' W 079°55'0 0.0
2018-Jul-15 18:58N 09°27' W 079°55'0 0.0
2018-Jul-15 18:28N 09°27' W 079°55'0 0.0
2018-Jul-15 17:58N 09°27' W 079°55'0 0.0
2018-Jul-15 17:28N 09°27' W 079°55'0 0.0
2018-Jul-15 16:58N 09°27' W 079°55'0 0.1
2018-Jul-15 16:28N 09°27' W 079°55'0 0.4
2018-Jul-15 15:58N 09°26' W 079°56'0 0.2
2018-Jul-15 15:28N 09°26' W 079°55'0 0.0
2018-Jul-15 14:25N 09°26' W 079°55'0 0.0
2018-Jul-15 13:25N 09°26' W 079°55'0 0.4
2018-Jul-15 13:00N 09°27' W 079°55'3 6.8
2018-Jul-15 12:30N 09°24' W 079°54'2 3.4
2018-Jul-15 12:00N 09°22' W 079°53'0 0.0
2018-Jul-15 11:30N 09°22' W 079°53'0 0.0
2018-Jul-15 11:00N 09°22' W 079°53'0 0.0
2018-Jul-15 10:30N 09°22' W 079°53'0 0.0
2018-Jul-15 10:00N 09°22' W 079°53'0 0.0
2018-Jul-15 09:30N 09°22' W 079°53'0 0.0
2018-Jul-15 09:00N 09°22' W 079°53'0 0.0
2018-Jul-15 08:30N 09°22' W 079°53'0 0.0
2018-Jul-15 08:00N 09°22' W 079°53'0 0.0
2018-Jul-15 07:30N 09°22' W 079°53'0 0.0
2018-Jul-15 07:00N 09°22' W 079°53'0 0.0
2018-Jul-15 06:30N 09°22' W 079°53'0 0.0
2018-Jul-15 06:00N 09°22' W 079°53'0 0.0
2018-Jul-15 05:30N 09°22' W 079°53'0 0.0
2018-Jul-15 05:00N 09°22' W 079°53'0 0.0
2018-Jul-15 04:30N 09°22' W 079°53'0 0.0
2018-Jul-15 04:00N 09°22' W 079°53'0 0.0
2018-Jul-15 03:30N 09°22' W 079°53'0 0.0
2018-Jul-15 03:00N 09°22' W 079°53'0 0.0
2018-Jul-15 02:30N 09°22' W 079°53'0 0.0
2018-Jul-15 02:00N 09°22' W 079°53'0 0.0
2018-Jul-15 01:30N 09°22' W 079°53'0 0.0
2018-Jul-15 01:00N 09°22' W 079°53'0 0.7
2018-Jul-15 00:30N 09°22' W 079°53'3 5.9
2018-Jul-15 00:00N 09°25' W 079°54'2 4.1
2018-Jul-14 23:28N 09°27' W 079°54'1 2.5
2018-Jul-14 23:01N 09°27' W 079°55'0 0.8
2018-Jul-14 22:30N 09°27' W 079°54'1 1.0
2018-Jul-14 22:00N 09°27' W 079°54'3 5.2
2018-Jul-14 21:31N 09°29' W 079°52'5 9.3
2018-Jul-14 21:00N 09°33' W 079°51'612.1
2018-Jul-14 20:30N 09°39' W 079°50'  
2018-Jul-10 09:10N 34°29' W 075°17'210.9
2018-Jul-10 09:00N 34°31' W 075°17'610.5
2018-Jul-10 08:26N 34°37' W 075°15'510.3
2018-Jul-10 07:58N 34°41' W 075°15'711.1
2018-Jul-10 07:18N 34°49' W 075°14'612.6
2018-Jul-10 06:48N 34°55' W 075°13'413.5
2018-Jul-10 06:30N 34°59' W 075°12'814.6
2018-Jul-10 05:57N 35°07' W 075°11'715.2
2018-Jul-10 05:30N 35°14' W 075°10'1014.9
2018-Jul-10 04:50N 35°24' W 075°11'515.4
2018-Jul-10 04:31N 35°29' W 075°11'5814.9
2018-Jul-10 00:35N 36°26' W 075°27'114.6
2018-Jul-10 00:30N 36°27' W 075°27'2914.1
2018-Jul-09 22:26N 36°50' W 075°49'613.5
2018-Jul-09 21:59N 36°54' W 075°55'2010.4
2018-Jul-09 20:03N 36°56' W 076°20'0 3.0
2018-Jul-09 20:00N 36°56' W 076°20'0 0.5
2018-Jul-09 19:28N 36°56' W 076°20'0 0.0
2018-Jul-09 18:43N 36°56' W 076°20'0 0.0
2018-Jul-09 18:28N 36°56' W 076°20'0 0.0
2018-Jul-08 15:08N 36°56' W 076°20'0 1.3
2018-Jul-08 14:59N 36°56' W 076°20'2 4.6
2018-Jul-08 14:30N 36°58' W 076°20'2210.8
2018-Jul-08 12:29N 36°54' W 075°53'2 4.3
2018-Jul-08 12:00N 36°53' W 075°52'4 8.4
2018-Jul-08 11:30N 36°50' W 075°47'1016.1
2018-Jul-08 10:53N 36°43' W 075°38'31616.1
2018-Jul-07 15:15N 32°44' W 079°49'311.2
2018-Jul-07 14:56N 32°46' W 079°52'4 8.5
2018-Jul-07 14:30N 32°49' W 079°55'4 7.9
2018-Jul-07 14:00N 32°52' W 079°58'2 1.9
2018-Jul-07 12:56N 32°54' W 079°58'0 0.0
2018-Jul-07 11:44N 32°54' W 079°58'0 0.0
2018-Jul-07 11:29N 32°54' W 079°58'0 0.0
2018-Jul-07 10:35N 32°54' W 079°58'0 0.0
2018-Jul-07 10:14N 32°54' W 079°58'0 0.0
2018-Jul-07 09:59N 32°54' W 079°58'0 0.0
2018-Jul-07 09:29N 32°54' W 079°58'0 0.0
2018-Jul-07 08:59N 32°54' W 079°58'0 0.0
2018-Jul-07 08:20N 32°54' W 079°58'0 0.0
2018-Jul-07 07:59N 32°54' W 079°58'0 0.0
2018-Jul-07 06:38N 32°54' W 079°58'0 0.0
2018-Jul-07 05:32N 32°54' W 079°58'0 0.0
2018-Jul-07 05:17N 32°54' W 079°58'0 0.0
2018-Jul-07 04:44N 32°54' W 079°58'0 0.0
2018-Jul-07 00:02N 32°54' W 079°58'0 0.0
2018-Jul-06 23:32N 32°54' W 079°58'0 0.0
2018-Jul-06 23:26N 32°54' W 079°58'0 0.0
2018-Jul-06 22:59N 32°54' W 079°58'0 0.0
2018-Jul-06 22:29N 32°54' W 079°58'0 0.0
2018-Jul-06 21:59N 32°54' W 079°58'0 0.0
2018-Jul-06 21:29N 32°54' W 079°58'0 0.0
2018-Jul-06 20:59N 32°54' W 079°58'0 0.0
2018-Jul-06 20:28N 32°54' W 079°58'0 0.9
2018-Jul-06 20:00N 32°54' W 079°57'2 4.7
2018-Jul-06 19:30N 32°52' W 079°58'  

Dump ship's entire track history